createdAt,value
2017-11-11T00:03:59.002Z,85.60
2017-11-11T00:09:00.073Z,85.80
2017-11-11T00:14:01.135Z,84.80
2017-11-11T00:19:02.207Z,83.70
2017-11-11T00:24:03.274Z,82.80
2017-11-11T00:29:04.327Z,84.30
2017-11-11T00:34:06.149Z,85.90
2017-11-11T00:39:08.155Z,85.90
2017-11-11T00:44:09.260Z,82.30
2017-11-11T00:49:11.071Z,81.30
2017-11-11T00:54:12.125Z,81.30
2017-11-11T00:59:13.160Z,82.50
2017-11-11T01:04:15.878Z,82.50
2017-11-11T01:09:16.954Z,82.50
2017-11-11T01:14:18.034Z,82.30
2017-11-11T01:19:19.102Z,83.60
2017-11-11T01:24:20.181Z,84.80
2017-11-11T01:29:21.955Z,85.70
2017-11-11T01:34:23.025Z,85.70
2017-11-11T01:39:24.879Z,87.50
2017-11-11T01:44:25.959Z,87.50
2017-11-11T01:49:27.794Z,89.50
2017-11-11T01:54:28.858Z,89.50
2017-11-11T01:59:29.943Z,89.60
2017-11-11T02:04:31.810Z,89.60
2017-11-11T02:09:32.906Z,89.60
2017-11-11T02:14:33.981Z,90.20
2017-11-11T02:19:35.102Z,90.20
2017-11-11T02:24:36.933Z,90.30
2017-11-11T02:29:38.027Z,90.30
2017-11-11T02:34:39.849Z,89.90
2017-11-11T02:39:40.949Z,89.80
2017-11-11T02:44:42.063Z,89.40
2017-11-11T02:49:43.173Z,88.10
2017-11-11T02:54:44.258Z,88.20
2017-11-11T02:59:46.046Z,86.20
2017-11-11T03:04:47.130Z,86.20
2017-11-11T03:09:48.185Z,86.40
2017-11-11T03:14:49.270Z,87.60
2017-11-11T03:19:50.335Z,88.50
2017-11-11T03:24:51.428Z,88.90
2017-11-11T03:29:52.501Z,90.00
2017-11-11T03:34:54.377Z,89.90
2017-11-11T03:39:55.481Z,90.10
2017-11-11T03:44:56.542Z,89.80
2017-11-11T03:49:57.640Z,89.60
2017-11-11T03:54:59.441Z,89.60
2017-11-11T04:00:00.513Z,89.70
2017-11-11T04:05:01.612Z,90.00
2017-11-11T04:10:02.738Z,89.90
2017-11-11T04:15:03.831Z,89.90
2017-11-11T04:20:05.657Z,90.10
2017-11-11T04:25:06.733Z,90.10
2017-11-11T04:30:07.795Z,90.40
2017-11-11T04:35:08.834Z,90.40
2017-11-11T04:40:10.898Z,90.70
2017-11-11T04:45:11.961Z,90.70
2017-11-11T04:50:13.084Z,90.50
2017-11-11T04:55:14.886Z,90.40
2017-11-11T05:00:15.951Z,90.40
2017-11-11T05:05:17.062Z,90.70
2017-11-11T05:10:18.127Z,90.70
2017-11-11T05:15:19.191Z,90.90
2017-11-11T05:20:21.017Z,91.10
2017-11-11T05:25:22.095Z,91.10
2017-11-11T05:30:23.182Z,91.20
2017-11-11T05:35:24.997Z,91.40
2017-11-11T05:40:26.102Z,91.30
2017-11-11T05:45:27.194Z,91.50
2017-11-11T05:50:29.017Z,91.70
2017-11-11T05:55:30.082Z,91.70
2017-11-11T06:00:31.242Z,91.70
2017-11-11T06:05:32.342Z,91.70
2017-11-11T06:10:33.422Z,91.70
2017-11-11T06:15:34.494Z,91.70
2017-11-11T06:20:36.306Z,92.00
2017-11-11T06:25:37.358Z,92.00
2017-11-11T06:30:38.453Z,92.20
2017-11-11T06:35:40.262Z,92.00
2017-11-11T06:40:41.328Z,92.00
2017-11-11T06:45:42.417Z,91.70
2017-11-11T06:50:43.489Z,91.00
2017-11-11T06:55:45.840Z,89.80
2017-11-11T07:00:46.918Z,89.30
2017-11-11T07:05:47.994Z,87.00
2017-11-11T07:10:49.801Z,84.00
2017-11-11T07:15:50.898Z,84.60
2017-11-11T07:20:51.999Z,81.70
2017-11-11T07:25:53.821Z,80.10
2017-11-11T07:30:55.854Z,80.10
2017-11-11T07:35:57.670Z,79.70
2017-11-11T07:40:58.746Z,79.70
2017-11-11T07:45:59.844Z,79.70
2017-11-11T07:51:01.657Z,78.60
2017-11-11T07:56:02.755Z,78.60
2017-11-11T08:01:03.819Z,78.80
2017-11-11T08:06:05.459Z,77.20
2017-11-11T08:11:06.545Z,75.60
2017-11-11T08:16:07.619Z,74.90
2017-11-11T08:21:08.722Z,73.60
2017-11-11T08:26:09.809Z,73.70
2017-11-11T08:31:10.889Z,72.20
2017-11-11T08:36:11.970Z,71.60
2017-11-11T08:41:13.953Z,73.10
2017-11-11T08:46:15.762Z,73.30
2017-11-11T08:51:16.830Z,73.30
2017-11-11T08:56:17.916Z,71.70
2017-11-11T09:01:18.982Z,72.60
2017-11-11T09:06:20.786Z,73.90
2017-11-11T09:11:21.847Z,73.60
2017-11-11T09:16:22.930Z,73.70
2017-11-11T09:21:24.002Z,71.90
2017-11-11T09:26:25.373Z,73.70
2017-11-11T09:31:26.437Z,73.70
2017-11-11T09:36:27.512Z,73.80
2017-11-11T09:41:31.853Z,73.80
2017-11-11T09:46:33.670Z,74.00
2017-11-11T09:51:34.763Z,73.70
2017-11-11T09:56:35.849Z,73.80
2017-11-11T10:01:37.637Z,72.70
2017-11-11T10:06:38.695Z,72.70
2017-11-11T10:11:40.510Z,69.50
2017-11-11T10:16:41.582Z,69.50
2017-11-11T10:21:42.682Z,68.60
2017-11-11T10:26:44.496Z,65.70
2017-11-11T10:31:45.574Z,65.70
2017-11-11T10:36:47.438Z,65.90
2017-11-11T10:41:48.536Z,65.00
2017-11-11T10:46:49.626Z,65.20
2017-11-11T10:51:50.698Z,65.30
2017-11-11T10:56:51.816Z,63.80
2017-11-11T11:01:53.010Z,63.60
2017-11-11T11:06:54.103Z,63.70
2017-11-11T11:11:55.214Z,65.40
2017-11-11T11:16:57.005Z,65.40
2017-11-11T11:21:58.062Z,65.40
2017-11-11T11:26:59.131Z,64.40
2017-11-11T11:32:00.220Z,63.70
2017-11-11T11:37:01.294Z,63.10
2017-11-11T11:42:02.371Z,62.00
2017-11-11T11:47:03.442Z,61.00
2017-11-11T11:52:05.094Z,63.50
2017-11-11T11:57:06.905Z,62.80
2017-11-11T12:02:07.983Z,62.80
2017-11-11T12:07:09.030Z,63.00
2017-11-11T12:12:10.065Z,60.90
2017-11-11T12:17:11.121Z,61.60
2017-11-11T12:22:12.178Z,62.30
2017-11-11T12:27:13.970Z,62.00
2017-11-11T12:32:15.020Z,62.10
2017-11-11T12:37:16.077Z,64.70
2017-11-11T12:42:17.131Z,63.30
2017-11-11T12:47:18.200Z,66.40
2017-11-11T12:52:19.242Z,66.40
2017-11-11T12:57:21.096Z,66.10
2017-11-11T13:02:22.886Z,66.50
2017-11-11T13:07:24.678Z,67.60
2017-11-11T13:12:25.747Z,67.60
2017-11-11T13:17:26.798Z,67.80
2017-11-11T13:22:27.857Z,68.80
2017-11-11T13:27:28.896Z,70.10
2017-11-11T13:32:30.714Z,74.60
2017-11-11T13:37:31.809Z,74.60
2017-11-11T13:42:32.898Z,76.00
2017-11-11T13:47:33.990Z,75.90
2017-11-11T13:52:35.070Z,78.20
2017-11-11T13:57:36.138Z,78.90
2017-11-11T14:02:37.212Z,77.90
2017-11-11T14:07:38.995Z,77.60
2017-11-11T14:12:40.797Z,78.00
2017-11-11T14:17:41.894Z,78.00
2017-11-11T14:22:42.937Z,79.10
2017-11-11T14:27:44.001Z,80.00
2017-11-11T14:32:45.070Z,79.70
2017-11-11T14:37:46.170Z,79.70
2017-11-11T14:42:47.246Z,80.90
2017-11-11T14:47:48.333Z,80.50
2017-11-11T14:52:49.407Z,80.90
2017-11-11T14:57:50.466Z,81.50
2017-11-11T15:02:51.520Z,81.20
2017-11-11T15:07:52.831Z,81.40
2017-11-11T15:12:53.893Z,81.50
2017-11-11T15:17:54.988Z,82.40
2017-11-11T15:22:59.987Z,82.30
2017-11-11T15:28:01.828Z,83.60
2017-11-11T15:33:02.890Z,83.50
2017-11-11T15:38:03.955Z,83.60
2017-11-11T15:43:05.010Z,83.60
2017-11-11T15:48:06.070Z,83.60
2017-11-11T15:53:07.162Z,84.30
2017-11-11T15:58:08.245Z,84.90
2017-11-11T16:03:12.949Z,85.90
2017-11-11T16:08:14.753Z,87.90
2017-11-11T16:13:15.840Z,87.90
2017-11-11T16:18:17.641Z,89.40
2017-11-11T16:23:18.741Z,89.40
2017-11-11T16:28:19.803Z,89.60
2017-11-11T16:33:20.867Z,90.40
2017-11-11T16:38:21.918Z,90.40
2017-11-11T16:43:23.002Z,90.80
2017-11-11T16:48:24.055Z,91.10
2017-11-11T16:53:25.167Z,90.90
2017-11-11T16:58:26.970Z,91.10
2017-11-11T17:03:28.046Z,91.10
2017-11-11T17:08:29.114Z,91.10
2017-11-11T17:13:30.209Z,91.20
2017-11-11T17:18:32.010Z,91.20
2017-11-11T17:23:33.105Z,91.20
2017-11-11T17:28:34.178Z,91.20
2017-11-11T17:33:35.271Z,91.40
2017-11-11T17:38:37.068Z,91.60
2017-11-11T17:43:38.134Z,91.60
2017-11-11T17:48:41.332Z,91.80
2017-11-11T17:53:42.851Z,91.80
2017-11-11T17:58:43.930Z,91.60
2017-11-11T18:03:45.013Z,91.70
2017-11-11T18:08:46.098Z,91.70
2017-11-11T18:13:47.154Z,91.70
2017-11-11T18:18:48.216Z,91.60
2017-11-11T18:23:49.281Z,91.80
2017-11-11T18:28:50.369Z,91.90
2017-11-11T18:33:51.531Z,92.10
2017-11-11T18:38:52.602Z,92.00
2017-11-11T18:43:58.121Z,91.90
2017-11-11T18:48:59.207Z,91.90
2017-11-11T18:54:00.298Z,92.00
2017-11-11T18:59:01.353Z,92.20
2017-11-11T19:04:03.181Z,92.10
2017-11-11T19:09:04.302Z,92.10
2017-11-11T19:14:05.502Z,92.30
2017-11-11T19:19:06.586Z,92.50
2017-11-11T19:24:07.757Z,92.70
2017-11-11T19:29:09.576Z,92.90
2017-11-11T19:34:10.690Z,92.60
2017-11-11T19:39:11.766Z,92.50
2017-11-11T19:44:13.639Z,92.80
2017-11-11T19:49:15.467Z,92.90
2017-11-11T19:54:16.577Z,92.90
2017-11-11T19:59:18.374Z,93.10
2017-11-11T20:04:19.433Z,93.10
2017-11-11T20:09:20.494Z,93.10
2017-11-11T20:14:21.542Z,93.10
2017-11-11T20:19:22.609Z,93.40
2017-11-11T20:24:24.109Z,93.40
2017-11-11T20:29:25.197Z,93.50
2017-11-11T20:34:26.346Z,93.60
2017-11-11T20:39:27.416Z,93.80
2017-11-11T20:44:28.467Z,93.80
2017-11-11T20:49:29.538Z,94.00
2017-11-11T20:54:31.338Z,94.10
2017-11-11T20:59:32.417Z,94.10
2017-11-11T21:04:33.486Z,94.10
2017-11-11T21:09:34.539Z,94.00
2017-11-11T21:14:35.594Z,94.10
2017-11-11T21:19:36.675Z,94.10
2017-11-11T21:24:37.746Z,94.10
2017-11-11T21:29:39.565Z,94.20
2017-11-11T21:34:40.606Z,94.20
2017-11-11T21:39:42.409Z,94.10
2017-11-11T21:44:43.480Z,94.10
2017-11-11T21:49:45.258Z,94.10
2017-11-11T21:54:46.454Z,94.10
2017-11-11T21:59:47.519Z,94.10
2017-11-11T22:04:48.595Z,94.20
2017-11-11T22:09:50.378Z,94.20
2017-11-11T22:14:51.442Z,94.20
2017-11-11T22:19:52.512Z,94.30
2017-11-11T22:24:53.552Z,94.30
2017-11-11T22:29:54.605Z,94.30
2017-11-11T22:34:55.668Z,94.30
2017-11-11T22:39:56.723Z,94.40
2017-11-11T22:44:57.773Z,94.30
2017-11-11T22:49:59.571Z,90.40
2017-11-11T22:55:00.630Z,90.40
2017-11-11T23:00:01.706Z,87.10
2017-11-11T23:05:02.804Z,88.10
2017-11-11T23:10:03.878Z,88.00
2017-11-11T23:15:05.694Z,88.10
2017-11-11T23:20:06.773Z,88.10
2017-11-11T23:25:08.595Z,90.10
2017-11-11T23:30:09.664Z,90.20
2017-11-11T23:35:10.754Z,90.60
2017-11-11T23:40:11.800Z,90.60
2017-11-11T23:45:12.875Z,90.20
2017-11-11T23:50:13.939Z,90.10
2017-11-11T23:55:15.014Z,89.30
